createdAt,value
2022-10-03T00:01:22.706Z,98707.19
2022-10-03T00:04:14.123Z,98695.00
2022-10-03T00:06:47.946Z,98692.09
2022-10-03T00:09:27.417Z,98688.19
2022-10-03T00:11:57.355Z,98690.84
2022-10-03T00:15:00.114Z,98680.38
2022-10-03T00:17:44.748Z,98679.63
2022-10-03T00:20:43.607Z,98679.84
2022-10-03T00:23:23.936Z,98683.50
2022-10-03T00:26:28.518Z,98682.06
2022-10-03T00:29:01.276Z,98683.28
2022-10-03T00:32:15.795Z,98689.38
2022-10-03T00:34:58.131Z,98681.09
2022-10-03T00:37:45.349Z,98679.91
2022-10-03T00:40:40.426Z,98679.91
2022-10-03T00:43:35.933Z,98678.69
2022-10-03T00:46:12.020Z,98682.81
2022-10-03T00:48:57.754Z,98685.72
2022-10-03T00:51:55.757Z,98690.63
2022-10-03T00:54:43.785Z,98682.38
2022-10-03T00:57:22.751Z,98683.84
2022-10-03T01:00:27.477Z,98682.66
2022-10-03T01:03:19.663Z,98682.44
2022-10-03T01:06:21.557Z,98664.41
2022-10-03T01:09:10.581Z,98661.00
2022-10-03T01:12:02.012Z,98669.56
2022-10-03T01:14:41.283Z,98660.31
2022-10-03T01:17:24.247Z,98660.03
2022-10-03T01:20:30.011Z,98658.81
2022-10-03T01:23:23.132Z,98665.41
2022-10-03T01:26:04.654Z,98653.47
2022-10-03T01:29:07.840Z,98661.22
2022-10-03T01:32:00.687Z,98667.31
2022-10-03T01:34:51.787Z,98664.88
2022-10-03T01:37:32.981Z,98677.06
2022-10-03T01:40:29.858Z,98665.09
2022-10-03T01:43:12.226Z,98665.59
2022-10-03T01:45:53.272Z,98664.88
2022-10-03T01:48:37.632Z,98671.72
2022-10-03T01:51:14.227Z,98665.09
2022-10-03T01:53:54.221Z,98665.81
2022-10-03T01:56:39.622Z,98667.78
2022-10-03T01:59:19.714Z,98660.25
2022-10-03T02:01:52.002Z,98658.75
2022-10-03T02:04:47.995Z,98652.94
2022-10-03T02:07:41.722Z,98651.00
2022-10-03T02:10:44.120Z,98660.03
2022-10-03T02:13:31.587Z,98645.63
2022-10-03T02:16:21.300Z,98643.69
2022-10-03T02:19:11.212Z,98648.84
2022-10-03T02:21:51.192Z,98647.81
2022-10-03T02:24:30.178Z,98641.53
2022-10-03T02:27:34.889Z,98643.22
2022-10-03T02:30:17.048Z,98643.72
2022-10-03T02:33:08.875Z,98646.91
2022-10-03T02:35:43.229Z,98646.16
2022-10-03T02:38:19.378Z,98637.91
2022-10-03T02:41:08.456Z,98637.16
2022-10-03T02:44:08.215Z,98642.53
2022-10-03T02:47:06.047Z,98646.44
2022-10-03T02:49:36.067Z,98639.41
2022-10-03T02:52:33.897Z,98640.41
2022-10-03T02:55:28.466Z,98635.81
2022-10-03T02:58:43.022Z,98646.53
2022-10-03T03:01:24.919Z,98648.00
2022-10-03T03:04:09.970Z,98656.06
2022-10-03T03:06:53.127Z,98649.72
2022-10-03T03:09:54.263Z,98653.38
2022-10-03T03:13:01.979Z,98641.22
2022-10-03T03:16:23.635Z,98641.47
2022-10-03T03:19:09.185Z,98640.50
2022-10-03T03:21:51.992Z,98647.53
2022-10-03T03:24:35.865Z,98647.53
2022-10-03T03:27:24.047Z,98641.25
2022-10-03T03:30:06.328Z,98638.81
2022-10-03T03:32:48.475Z,98633.66
2022-10-03T03:35:34.246Z,98631.00
2022-10-03T03:38:11.588Z,98629.56
2022-10-03T03:40:57.580Z,98627.09
2022-10-03T03:43:42.038Z,98622.72
2022-10-03T03:46:21.377Z,98624.41
2022-10-03T03:49:06.907Z,98617.09
2022-10-03T03:51:43.501Z,98617.59
2022-10-03T03:54:47.733Z,98614.44
2022-10-03T03:57:41.933Z,98609.56
2022-10-03T04:00:14.097Z,98601.81
2022-10-03T04:03:08.349Z,98601.84
2022-10-03T04:05:53.915Z,98599.41
2022-10-03T04:08:59.494Z,98597.22
2022-10-03T04:11:38.049Z,98596.53
2022-10-03T04:14:44.923Z,98602.13
2022-10-03T04:18:11.337Z,98600.69
2022-10-03T04:20:57.427Z,98603.63
2022-10-03T04:23:47.348Z,98611.41
2022-10-03T04:26:32.297Z,98613.88
2022-10-03T04:29:18.153Z,98610.97
2022-10-03T04:31:57.416Z,98618.47
2022-10-03T04:34:48.604Z,98611.19
2022-10-03T04:37:32.536Z,98612.41
2022-10-03T04:40:11.994Z,98621.66
2022-10-03T04:42:58.666Z,98612.63
2022-10-03T04:45:35.131Z,98610.19
2022-10-03T04:48:39.657Z,98613.59
2022-10-03T04:51:24.737Z,98619.69
2022-10-03T04:54:25.523Z,98619.69
2022-10-03T04:57:16.512Z,98620.41
2022-10-03T04:59:59.002Z,98619.91
2022-10-03T05:02:37.007Z,98623.34
2022-10-03T05:05:27.618Z,98624.31
2022-10-03T05:08:14.928Z,98636.50
2022-10-03T05:10:57.344Z,98634.53
2022-10-03T05:13:52.096Z,98632.34
2022-10-03T05:17:03.752Z,98638.69
2022-10-03T05:19:42.653Z,98639.38
2022-10-03T05:22:31.676Z,98642.31
2022-10-03T05:25:34.878Z,98640.13
2022-10-03T05:28:22.550Z,98642.56
2022-10-03T05:30:57.549Z,98643.28
2022-10-03T05:33:41.318Z,98642.31
2022-10-03T05:36:20.406Z,98642.31
2022-10-03T05:39:24.650Z,98640.88
2022-10-03T05:42:32.285Z,98648.66
2022-10-03T05:45:28.998Z,98648.91
2022-10-03T05:48:12.827Z,98651.81
2022-10-03T05:50:58.086Z,98650.09
2022-10-03T05:53:58.057Z,98652.50
2022-10-03T05:57:08.129Z,98662.03
2022-10-03T06:00:10.143Z,98667.41
2022-10-03T06:03:03.956Z,98672.47
2022-10-03T06:05:33.297Z,98681.47
2022-10-03T06:08:39.999Z,98671.25
2022-10-03T06:11:32.358Z,98677.56
2022-10-03T06:14:24.724Z,98679.28
2022-10-03T06:17:18.229Z,98680.00
2022-10-03T06:19:50.686Z,98681.94
2022-10-03T06:22:30.180Z,98679.28
2022-10-03T06:25:15.405Z,98689.03
2022-10-03T06:28:22.136Z,98698.53
2022-10-03T06:31:31.885Z,98689.53
2022-10-03T06:34:20.783Z,98697.56
2022-10-03T06:37:26.441Z,98703.16
2022-10-03T06:40:09.603Z,98708.00
2022-10-03T06:43:01.461Z,98706.56
2022-10-03T06:45:40.485Z,98713.34
2022-10-03T06:48:29.052Z,98713.88
2022-10-03T06:51:02.138Z,98711.41
2022-10-03T06:53:31.987Z,98708.25
2022-10-03T06:56:19.603Z,98708.00
2022-10-03T06:58:59.447Z,98710.19
2022-10-03T07:01:57.038Z,98708.97
2022-10-03T07:04:54.267Z,98713.84
2022-10-03T07:07:46.109Z,98717.75
2022-10-03T07:10:22.577Z,98713.63
2022-10-03T07:12:55.633Z,98718.97
2022-10-03T07:15:50.209Z,98710.69
2022-10-03T07:18:38.298Z,98721.91
2022-10-03T07:21:36.092Z,98715.09
2022-10-03T07:24:03.639Z,98724.81
2022-10-03T07:26:48.896Z,98719.44
2022-10-03T07:29:24.377Z,98726.53
2022-10-03T07:32:20.710Z,98718.72
2022-10-03T07:35:05.985Z,98717.50
2022-10-03T07:38:47.771Z,98721.63
2022-10-03T07:41:29.470Z,98720.69
2022-10-03T07:44:08.664Z,98729.47
2022-10-03T07:46:56.862Z,98717.50
2022-10-03T07:49:57.490Z,98729.44
2022-10-03T07:52:24.783Z,98725.28
2022-10-03T07:55:23.744Z,98731.66
2022-10-03T07:58:22.396Z,98733.81
2022-10-03T08:01:26.767Z,98741.84
2022-10-03T08:04:21.371Z,98743.31
2022-10-03T08:07:06.639Z,98747.44
2022-10-03T08:09:48.581Z,98739.88
2022-10-03T08:12:34.049Z,98754.72
2022-10-03T08:15:10.322Z,98755.66
2022-10-03T08:18:02.016Z,98757.34
2022-10-03T08:20:43.225Z,98751.22
2022-10-03T08:23:47.545Z,98758.06
2022-10-03T08:26:26.366Z,98749.03
2022-10-03T08:29:21.107Z,98754.16
2022-10-03T08:32:29.526Z,98759.94
2022-10-03T08:35:21.347Z,98760.91
2022-10-03T08:38:10.276Z,98756.50
2022-10-03T08:41:08.856Z,98763.06
2022-10-03T08:43:57.450Z,98771.59
2022-10-03T08:47:05.970Z,98772.50
2022-10-03T08:50:10.702Z,98774.44
2022-10-03T08:52:40.923Z,98767.81
2022-10-03T08:55:46.167Z,98767.31
2022-10-03T08:58:32.230Z,98773.38
2022-10-03T09:01:29.559Z,98765.56
2022-10-03T09:04:04.972Z,98777.03
2022-10-03T09:07:12.074Z,98785.81
2022-10-03T09:10:10.506Z,98793.13
2022-10-03T09:13:09.979Z,98788.72
2022-10-03T09:16:07.647Z,98794.06
2022-10-03T09:18:46.315Z,98804.84
2022-10-03T09:21:28.426Z,98803.84
2022-10-03T09:24:23.022Z,98799.69
2022-10-03T09:27:08.556Z,98809.69
2022-10-03T09:29:58.532Z,98814.34
2022-10-03T09:32:31.487Z,98810.13
2022-10-03T09:35:36.729Z,98814.75
2022-10-03T09:38:41.136Z,98819.81
2022-10-03T09:41:32.849Z,98818.84
2022-10-03T09:44:33.567Z,98816.59
2022-10-03T09:47:28.875Z,98818.53
2022-10-03T09:50:19.688Z,98825.84
2022-10-03T09:52:47.251Z,98820.53
2022-10-03T09:55:46.507Z,98829.88
2022-10-03T09:58:58.199Z,98829.84
2022-10-03T10:01:34.238Z,98832.53
2022-10-03T10:04:53.125Z,98836.38
2022-10-03T10:07:46.404Z,98839.41
2022-10-03T10:10:51.530Z,98841.31
2022-10-03T10:14:06.185Z,98839.28
2022-10-03T10:16:48.167Z,98840.22
2022-10-03T10:19:36.771Z,98841.13
2022-10-03T10:22:22.880Z,98844.78
2022-10-03T10:25:11.911Z,98850.91
2022-10-03T10:28:12.370Z,98852.63
2022-10-03T10:31:03.177Z,98867.00
2022-10-03T10:33:58.036Z,98859.22
2022-10-03T10:37:02.386Z,98865.72
2022-10-03T10:39:45.392Z,98864.00
2022-10-03T10:42:57.116Z,98861.28
2022-10-03T10:45:39.649Z,98869.47
2022-10-03T10:48:28.417Z,98865.69
2022-10-03T10:51:30.136Z,98869.78
2022-10-03T10:54:25.018Z,98869.63
2022-10-03T10:57:25.083Z,98867.19
2022-10-03T11:00:16.211Z,98857.84
2022-10-03T11:03:34.104Z,98846.97
2022-10-03T11:06:10.216Z,98851.44
2022-10-03T11:09:25.137Z,98847.16
2022-10-03T11:12:44.299Z,98841.53
2022-10-03T11:15:43.747Z,98839.63
2022-10-03T11:18:40.093Z,98843.28
2022-10-03T11:21:44.536Z,98844.56
2022-10-03T11:24:23.762Z,98839.34
2022-10-03T11:27:12.095Z,98840.56
2022-10-03T11:30:06.880Z,98830.22
2022-10-03T11:33:02.122Z,98831.59
2022-10-03T11:35:42.829Z,98831.47
2022-10-03T11:38:20.637Z,98838.47
2022-10-03T11:41:32.361Z,98826.38
2022-10-03T11:44:15.023Z,98817.66
2022-10-03T11:47:20.879Z,98827.97
2022-10-03T11:49:53.647Z,98827.97
2022-10-03T11:52:36.014Z,98828.41
2022-10-03T11:55:34.998Z,98812.91
2022-10-03T11:58:21.050Z,98815.44
2022-10-03T12:01:00.351Z,98816.03
2022-10-03T12:03:31.984Z,98815.81
2022-10-03T12:06:19.278Z,98811.06
2022-10-03T12:08:56.226Z,98805.50
2022-10-03T12:11:29.388Z,98803.56
2022-10-03T12:14:16.577Z,98798.28
2022-10-03T12:16:58.000Z,98800.66
2022-10-03T12:19:52.543Z,98793.53
2022-10-03T12:22:59.541Z,98787.94
2022-10-03T12:25:30.563Z,98787.94
2022-10-03T12:28:04.453Z,98789.69
2022-10-03T12:31:21.865Z,98796.75
2022-10-03T12:34:14.235Z,98787.84
2022-10-03T12:36:58.507Z,98787.94
2022-10-03T12:39:45.614Z,98796.13
2022-10-03T12:42:39.500Z,98788.78
2022-10-03T12:45:32.628Z,98778.00
2022-10-03T12:48:13.540Z,98786.91
2022-10-03T12:50:46.714Z,98777.81
2022-10-03T12:53:16.665Z,98773.44
2022-10-03T12:55:55.626Z,98781.13
2022-10-03T12:58:48.121Z,98771.81
2022-10-03T13:01:36.546Z,98774.50
2022-10-03T13:04:10.093Z,98765.38
2022-10-03T13:07:02.902Z,98765.56
2022-10-03T13:09:48.626Z,98757.91
2022-10-03T13:12:41.182Z,98749.38
2022-10-03T13:15:45.038Z,98759.34
2022-10-03T13:18:43.840Z,98758.63
2022-10-03T13:24:16.996Z,98753.03
2022-10-03T13:26:54.347Z,98750.31
2022-10-03T13:29:44.332Z,98743.19
2022-10-03T13:32:31.306Z,98733.63
2022-10-03T13:35:35.857Z,98737.25
2022-10-03T13:38:16.879Z,98745.84
2022-10-03T13:40:55.589Z,98737.75
2022-10-03T13:43:34.661Z,98733.47
2022-10-03T13:46:08.679Z,98731.88
2022-10-03T13:48:36.901Z,98740.91
2022-10-03T13:51:15.972Z,98740.09
2022-10-03T13:54:00.531Z,98735.31
2022-10-03T13:56:45.131Z,98727.69
2022-10-03T13:59:27.308Z,98727.19
2022-10-03T14:02:14.989Z,98725.94
2022-10-03T14:05:09.796Z,98728.84
2022-10-03T14:07:55.585Z,98734.47
2022-10-03T14:10:59.577Z,98730.50
2022-10-03T14:13:43.759Z,98727.06
2022-10-03T14:16:40.765Z,98728.53
2022-10-03T14:19:13.580Z,98732.16
2022-10-03T14:22:08.273Z,98717.22
2022-10-03T14:25:05.728Z,98718.44
2022-10-03T14:27:50.951Z,98717.88
2022-10-03T14:30:25.205Z,98727.31
2022-10-03T14:32:59.708Z,98719.91
2022-10-03T14:35:48.190Z,98726.50
2022-10-03T14:38:51.903Z,98717.34
2022-10-03T14:41:53.167Z,98716.41
2022-10-03T14:44:27.437Z,98718.78
2022-10-03T14:47:10.017Z,98722.69
2022-10-03T14:49:56.244Z,98720.75
2022-10-03T14:52:52.640Z,98722.75
2022-10-03T14:55:29.025Z,98709.75
2022-10-03T14:58:17.472Z,98710.06
2022-10-03T15:00:47.920Z,98715.09
2022-10-03T15:03:18.138Z,98705.16
2022-10-03T15:06:00.299Z,98710.38
2022-10-03T15:08:38.191Z,98707.91
2022-10-03T15:11:07.201Z,98711.63
2022-10-03T15:13:40.527Z,98702.47
2022-10-03T15:16:09.683Z,98698.78
2022-10-03T15:18:38.601Z,98695.31
2022-10-03T15:21:11.231Z,98697.03
2022-10-03T15:23:44.251Z,98707.53
2022-10-03T15:26:22.132Z,98701.63
2022-10-03T15:28:51.825Z,98682.00
2022-10-03T15:31:41.048Z,98681.22
2022-10-03T15:34:21.508Z,98697.91
2022-10-03T15:36:51.590Z,98685.03
2022-10-03T15:39:34.291Z,98685.19
2022-10-03T15:42:10.486Z,98689.53
2022-10-03T15:44:40.348Z,98698.13
2022-10-03T15:47:34.459Z,98688.97
2022-10-03T15:50:13.841Z,98684.34
2022-10-03T15:52:44.847Z,98693.75
2022-10-03T15:55:39.898Z,98702.91
2022-10-03T15:58:18.207Z,98696.66
2022-10-03T16:00:53.556Z,98708.03
2022-10-03T16:03:33.654Z,98689.44
2022-10-03T16:06:00.703Z,98695.50
2022-10-03T16:08:32.256Z,98694.59
2022-10-03T16:11:18.384Z,98687.94
2022-10-03T16:14:05.107Z,98685.66
2022-10-03T16:16:56.943Z,98693.84
2022-10-03T16:19:40.648Z,98692.38
2022-10-03T16:22:20.214Z,98689.31
2022-10-03T16:24:58.817Z,98692.19
2022-10-03T16:27:30.144Z,98702.84
2022-10-03T16:30:12.236Z,98699.59
2022-10-03T16:32:47.571Z,98702.09
2022-10-03T16:35:44.872Z,98703.53
2022-10-03T16:38:24.918Z,98699.19
2022-10-03T16:41:02.510Z,98697.41
2022-10-03T16:43:32.513Z,98703.19
2022-10-03T16:46:19.167Z,98696.88
2022-10-03T16:49:04.889Z,98686.16
2022-10-03T16:51:46.511Z,98687.53
2022-10-03T16:54:17.394Z,98688.84
2022-10-03T16:56:48.828Z,98684.50
2022-10-03T16:59:21.057Z,98691.16
2022-10-03T17:01:54.813Z,98689.56
2022-10-03T17:04:37.875Z,98694.41
2022-10-03T17:07:29.338Z,98687.53
2022-10-03T17:09:58.487Z,98688.94
2022-10-03T17:12:37.489Z,98698.66
2022-10-03T17:15:36.679Z,98696.72
2022-10-03T17:18:11.047Z,98703.28
2022-10-03T17:20:52.633Z,98689.59
2022-10-03T17:23:28.722Z,98693.22
2022-10-03T17:26:21.382Z,98692.16
2022-10-03T17:28:55.445Z,98693.41
2022-10-03T17:31:25.604Z,98692.91
2022-10-03T17:34:15.026Z,98693.94
2022-10-03T17:37:05.302Z,98695.59
2022-10-03T17:39:59.073Z,98694.75
2022-10-03T17:42:34.757Z,98697.38
2022-10-03T17:45:31.779Z,98693.47
2022-10-03T17:48:19.623Z,98690.50
2022-10-03T17:51:01.193Z,98693.38
2022-10-03T17:53:30.738Z,98697.81
2022-10-03T17:56:04.013Z,98696.84
2022-10-03T17:58:33.329Z,98702.53
2022-10-03T18:01:20.880Z,98695.69
2022-10-03T18:04:02.523Z,98704.03
2022-10-03T18:06:29.937Z,98707.16
2022-10-03T18:08:57.600Z,98709.84
2022-10-03T18:11:29.413Z,98717.13
2022-10-03T18:14:00.354Z,98720.31
2022-10-03T18:16:54.405Z,98725.09
2022-10-03T18:19:33.414Z,98725.00
2022-10-03T18:22:23.740Z,98725.44
2022-10-03T18:24:51.155Z,98730.13
2022-10-03T18:27:43.139Z,98727.63
2022-10-03T18:30:46.684Z,98732.69
2022-10-03T18:33:16.314Z,98736.63
2022-10-03T18:35:46.698Z,98736.56
2022-10-03T18:38:14.515Z,98732.97
2022-10-03T18:40:47.760Z,98737.59
2022-10-03T18:43:47.451Z,98745.19
2022-10-03T18:46:15.331Z,98736.47
2022-10-03T18:49:36.216Z,98723.53
2022-10-03T18:52:16.711Z,98728.91
2022-10-03T18:55:00.311Z,98733.25
2022-10-03T18:57:37.580Z,98731.09
2022-10-03T19:00:21.394Z,98734.00
2022-10-03T19:02:51.011Z,98738.31
2022-10-03T19:05:23.708Z,98729.94
2022-10-03T19:08:07.059Z,98740.63
2022-10-03T19:10:39.966Z,98734.13
2022-10-03T19:13:16.804Z,98740.56
2022-10-03T19:16:13.924Z,98742.03
2022-10-03T19:18:44.685Z,98750.88
2022-10-03T19:21:21.321Z,98745.22
2022-10-03T19:24:03.006Z,98750.81
2022-10-03T19:26:36.081Z,98748.06
2022-10-03T19:29:15.028Z,98750.88
2022-10-03T19:31:51.912Z,98752.06
2022-10-03T19:34:48.666Z,98757.16
2022-10-03T19:37:45.466Z,98759.31
2022-10-03T19:40:36.490Z,98757.59
2022-10-03T19:43:26.875Z,98761.03
2022-10-03T19:46:17.216Z,98759.00
2022-10-03T19:49:04.103Z,98770.81
2022-10-03T19:51:31.101Z,98770.81
2022-10-03T19:53:58.687Z,98762.53
2022-10-03T19:56:31.325Z,98771.84
2022-10-03T19:59:12.940Z,98772.63
2022-10-03T20:01:48.505Z,98780.72
2022-10-03T20:04:20.099Z,98772.84
2022-10-03T20:06:50.314Z,98770.41
2022-10-03T20:09:29.222Z,98778.69
2022-10-03T20:12:00.268Z,98787.69
2022-10-03T20:14:34.174Z,98792.13
2022-10-03T20:17:15.302Z,98797.00
2022-10-03T20:19:56.472Z,98792.34
2022-10-03T20:22:33.316Z,98799.19
2022-10-03T20:25:00.922Z,98804.56
2022-10-03T20:27:52.057Z,98806.03
2022-10-03T20:30:37.726Z,98811.41
2022-10-03T20:33:06.423Z,98820.69
2022-10-03T20:35:42.263Z,98819.25
2022-10-03T20:38:34.762Z,98829.81
2022-10-03T20:41:10.191Z,98829.06
2022-10-03T20:43:41.810Z,98822.75
2022-10-03T20:46:16.220Z,98817.13
2022-10-03T20:49:26.298Z,98818.16
2022-10-03T20:51:53.193Z,98821.84
2022-10-03T20:54:26.466Z,98819.69
2022-10-03T20:57:02.308Z,98826.06
2022-10-03T20:59:45.677Z,98824.63
2022-10-03T21:02:19.387Z,98826.38
2022-10-03T21:05:27.416Z,98831.00
2022-10-03T21:08:04.013Z,98827.38
2022-10-03T21:10:44.772Z,98833.47
2022-10-03T21:13:28.489Z,98828.31
2022-10-03T21:16:01.657Z,98827.38
2022-10-03T21:18:40.369Z,98831.00
2022-10-03T21:21:13.170Z,98825.41
2022-10-03T21:24:04.306Z,98831.31
2022-10-03T21:26:38.134Z,98829.81
2022-10-03T21:29:28.983Z,98835.22
2022-10-03T21:32:20.486Z,98840.88
2022-10-03T21:34:47.451Z,98848.00
2022-10-03T21:37:49.751Z,98839.50
2022-10-03T21:40:38.264Z,98833.88
2022-10-03T21:43:27.010Z,98850.00
2022-10-03T21:45:56.829Z,98847.31
2022-10-03T21:48:38.967Z,98841.94
2022-10-03T21:51:15.531Z,98840.28
2022-10-03T21:53:49.007Z,98845.41
2022-10-03T21:56:19.121Z,98848.13
2022-10-03T21:59:21.182Z,98843.75
2022-10-03T22:02:14.255Z,98840.84
2022-10-03T22:04:54.697Z,98833.97
2022-10-03T22:07:38.567Z,98847.66
2022-10-03T22:10:22.839Z,98846.22
2022-10-03T22:13:06.289Z,98843.28
2022-10-03T22:16:08.518Z,98843.28
2022-10-03T22:19:00.951Z,98842.56
2022-10-03T22:21:53.148Z,98843.28
2022-10-03T22:24:35.596Z,98840.84
2022-10-03T22:27:20.979Z,98843.75
2022-10-03T22:30:07.879Z,98841.78
2022-10-03T22:33:02.500Z,98833.72
2022-10-03T22:35:55.846Z,98831.53
2022-10-03T22:38:27.129Z,98839.16
2022-10-03T22:40:56.728Z,98835.72
2022-10-03T22:43:24.247Z,98831.38
2022-10-03T22:45:53.501Z,98829.16
2022-10-03T22:48:25.789Z,98822.34
2022-10-03T22:50:54.354Z,98831.63
2022-10-03T22:53:27.118Z,98832.38
2022-10-03T22:55:58.823Z,98820.88
2022-10-03T22:58:29.532Z,98826.47
2022-10-03T23:00:59.633Z,98823.31
2022-10-03T23:03:32.607Z,98816.69
2022-10-03T23:06:30.469Z,98818.66
2022-10-03T23:09:20.011Z,98821.09
2022-10-03T23:11:49.699Z,98809.88
2022-10-03T23:14:30.066Z,98821.34
2022-10-03T23:17:15.530Z,98806.66
2022-10-03T23:20:06.899Z,98805.94
2022-10-03T23:22:36.474Z,98805.19
2022-10-03T23:25:14.008Z,98803.75
2022-10-03T23:28:21.487Z,98803.00
2022-10-03T23:30:53.506Z,98801.56
2022-10-03T23:33:32.789Z,98798.16
2022-10-03T23:36:23.070Z,98799.59
2022-10-03T23:38:49.958Z,98800.56
2022-10-03T23:41:30.430Z,98798.59
2022-10-03T23:43:59.228Z,98798.59
2022-10-03T23:46:30.243Z,98797.13
2022-10-03T23:49:00.366Z,98802.28
2022-10-03T23:54:20.633Z,98801.56
2022-10-03T23:57:09.045Z,98789.34
